createdAt,value
2023-04-25T00:02:22.845Z,12.03
2023-04-25T00:05:03.614Z,12.00
2023-04-25T00:07:43.168Z,12.00
2023-04-25T00:10:16.914Z,11.99
2023-04-25T00:16:21.430Z,11.83
2023-04-25T00:18:55.571Z,11.79
2023-04-25T00:21:33.375Z,11.76
2023-04-25T00:24:06.579Z,11.72
2023-04-25T00:26:40.105Z,11.72
2023-04-25T00:29:13.553Z,11.73
2023-04-25T00:31:47.089Z,11.72
2023-04-25T00:34:20.211Z,11.70
2023-04-25T00:36:54.006Z,11.71
2023-04-25T00:39:27.904Z,11.69
2023-04-25T00:42:01.005Z,11.71
2023-04-25T00:44:38.583Z,11.74
2023-04-25T00:47:14.373Z,11.74
2023-04-25T00:49:47.153Z,11.75
2023-04-25T00:52:23.988Z,11.74
2023-04-25T00:54:57.410Z,11.73
2023-04-25T00:57:30.932Z,11.75
2023-04-25T01:00:07.949Z,11.77
2023-04-25T01:02:42.171Z,11.79
2023-04-25T01:05:15.341Z,11.78
2023-04-25T01:07:49.258Z,11.77
2023-04-25T01:10:55.802Z,11.76
2023-04-25T01:13:28.575Z,11.79
2023-04-25T01:16:27.436Z,11.75
2023-04-25T01:19:01.485Z,11.73
2023-04-25T01:21:34.770Z,11.72
2023-04-25T01:24:09.154Z,11.67
2023-04-25T01:27:02.488Z,11.64
2023-04-25T01:29:36.570Z,11.61
2023-04-25T01:32:11.347Z,11.57
2023-04-25T01:34:44.576Z,11.53
2023-04-25T01:37:31.969Z,11.51
2023-04-25T01:40:07.263Z,11.48
2023-04-25T01:42:43.920Z,11.46
2023-04-25T01:45:21.312Z,11.46
2023-04-25T01:47:54.754Z,11.47
2023-04-25T01:50:31.169Z,11.48
2023-04-25T01:53:17.242Z,11.47
2023-04-25T01:55:53.363Z,11.46
2023-04-25T01:59:03.990Z,11.47
2023-04-25T02:01:36.903Z,11.43
2023-04-25T02:04:15.922Z,11.40
2023-04-25T02:06:52.655Z,11.40
2023-04-25T02:09:26.183Z,11.41
2023-04-25T02:12:00.110Z,11.42
2023-04-25T02:14:32.142Z,11.38
2023-04-25T02:17:07.759Z,11.37
2023-04-25T02:19:41.315Z,11.34
2023-04-25T02:22:14.282Z,11.32
2023-04-25T02:24:48.829Z,11.31
2023-04-25T02:27:22.187Z,11.27
2023-04-25T02:29:56.189Z,11.23
2023-04-25T02:32:29.551Z,11.22
2023-04-25T02:35:06.024Z,11.24
2023-04-25T02:37:40.866Z,11.25
2023-04-25T02:40:15.647Z,11.24
2023-04-25T02:42:49.146Z,11.23
2023-04-25T02:45:22.765Z,11.23
2023-04-25T02:47:56.055Z,11.25
2023-04-25T02:50:29.312Z,11.26
2023-04-25T02:53:02.531Z,11.28
2023-04-25T02:55:36.337Z,11.28
2023-04-25T02:58:10.255Z,11.26
2023-04-25T03:00:43.926Z,11.24
2023-04-25T03:03:19.251Z,11.23
2023-04-25T03:05:54.347Z,11.22
2023-04-25T03:08:34.414Z,11.17
2023-04-25T03:11:07.679Z,11.11
2023-04-25T03:13:40.654Z,11.09
2023-04-25T03:16:13.805Z,11.09
2023-04-25T03:18:46.807Z,10.93
2023-04-25T03:21:19.708Z,10.55
2023-04-25T03:23:53.653Z,10.32
2023-04-25T03:26:26.755Z,10.14
2023-04-25T03:29:00.735Z,9.93
2023-04-25T03:31:34.187Z,9.79
2023-04-25T03:34:06.173Z,9.59
2023-04-25T03:36:41.638Z,9.41
2023-04-25T03:39:18.591Z,9.25
2023-04-25T03:41:51.410Z,9.16
2023-04-25T03:44:26.332Z,9.09
2023-04-25T03:47:00.488Z,9.04
2023-04-25T03:49:34.657Z,8.96
2023-04-25T03:52:08.881Z,8.94
2023-04-25T03:54:44.959Z,8.92
2023-04-25T03:57:18.642Z,8.95
2023-04-25T04:00:04.141Z,8.95
2023-04-25T04:02:38.733Z,8.94
2023-04-25T04:05:11.951Z,8.95
2023-04-25T04:07:45.943Z,8.96
2023-04-25T04:10:18.551Z,8.94
2023-04-25T04:12:51.605Z,8.93
2023-04-25T04:15:26.323Z,8.91
2023-04-25T04:18:04.545Z,8.88
2023-04-25T04:20:38.245Z,8.86
2023-04-25T04:23:11.796Z,8.85
2023-04-25T04:25:45.074Z,8.85
2023-04-25T04:28:21.291Z,8.88
2023-04-25T04:30:54.259Z,8.90
2023-04-25T04:33:27.706Z,8.88
2023-04-25T04:36:00.728Z,8.87
2023-04-25T04:38:40.070Z,8.87
2023-04-25T04:41:14.170Z,8.83
2023-04-25T04:43:48.198Z,8.80
2023-04-25T04:46:21.986Z,8.82
2023-04-25T04:49:01.763Z,8.80
2023-04-25T04:51:35.451Z,8.76
2023-04-25T04:54:22.846Z,8.72
2023-04-25T04:56:56.452Z,8.71
2023-04-25T04:59:28.047Z,8.70
2023-04-25T05:02:01.080Z,8.70
2023-04-25T05:04:34.108Z,8.69
2023-04-25T05:07:10.519Z,8.71
2023-04-25T05:09:43.799Z,8.72
2023-04-25T05:12:17.720Z,8.75
2023-04-25T05:14:50.500Z,8.83
2023-04-25T05:17:24.750Z,8.85
2023-04-25T05:20:04.229Z,8.86
2023-04-25T05:22:39.376Z,8.87
2023-04-25T05:25:12.682Z,8.87
2023-04-25T05:27:45.355Z,8.89
2023-04-25T05:30:22.598Z,8.89
2023-04-25T05:32:56.152Z,8.90
2023-04-25T05:35:35.261Z,8.89
2023-04-25T05:38:08.301Z,8.81
2023-04-25T05:40:41.328Z,8.77
2023-04-25T05:43:16.727Z,8.68
2023-04-25T05:45:52.757Z,8.58
2023-04-25T05:48:26.319Z,8.52
2023-04-25T05:50:59.745Z,8.50
2023-04-25T05:53:32.862Z,8.47
2023-04-25T05:56:06.087Z,8.45
2023-04-25T05:58:42.764Z,8.45
2023-04-25T06:01:16.811Z,8.42
2023-04-25T06:04:02.032Z,8.39
2023-04-25T06:06:36.041Z,8.37
2023-04-25T06:09:08.902Z,8.36
2023-04-25T06:11:42.516Z,8.28
2023-04-25T06:14:19.018Z,8.25
2023-04-25T06:16:54.243Z,8.20
2023-04-25T06:19:27.489Z,8.17
2023-04-25T06:22:00.572Z,8.14
2023-04-25T06:24:34.085Z,8.16
2023-04-25T06:27:07.564Z,8.16
2023-04-25T06:29:40.954Z,8.15
2023-04-25T06:32:13.923Z,8.18
2023-04-25T06:34:47.885Z,8.22
2023-04-25T06:37:21.029Z,8.24
2023-04-25T06:39:55.285Z,8.28
2023-04-25T06:42:30.955Z,8.35
2023-04-25T06:45:04.940Z,8.36
2023-04-25T06:47:39.113Z,8.39
2023-04-25T06:50:12.731Z,8.36
2023-04-25T06:52:46.163Z,8.31
2023-04-25T06:55:19.424Z,8.27
2023-04-25T06:57:52.691Z,8.27
2023-04-25T07:00:26.027Z,8.29
2023-04-25T07:02:59.725Z,8.31
2023-04-25T07:05:33.548Z,8.34
2023-04-25T07:08:07.772Z,8.35
2023-04-25T07:10:41.913Z,8.42
2023-04-25T07:13:15.482Z,8.44
2023-04-25T07:15:49.910Z,8.49
2023-04-25T07:18:23.291Z,8.56
2023-04-25T07:20:56.666Z,8.71
2023-04-25T07:23:30.042Z,8.91
2023-04-25T07:26:03.232Z,9.34
2023-04-25T07:28:39.864Z,9.71
2023-04-25T07:31:12.300Z,10.39
2023-04-25T07:33:48.232Z,11.06
2023-04-25T07:36:24.657Z,11.20
2023-04-25T07:39:17.921Z,11.16
2023-04-25T07:41:52.486Z,11.10
2023-04-25T07:44:27.550Z,11.01
2023-04-25T07:47:01.429Z,10.91
2023-04-25T07:49:47.794Z,10.92
2023-04-25T07:52:24.147Z,11.02
2023-04-25T07:54:57.105Z,11.11
2023-04-25T07:57:34.421Z,11.59
2023-04-25T08:00:13.689Z,12.38
2023-04-25T08:02:47.770Z,12.63
2023-04-25T08:05:22.745Z,12.49
2023-04-25T08:07:58.188Z,12.23
2023-04-25T08:10:31.623Z,11.99
2023-04-25T08:13:04.905Z,11.69
2023-04-25T08:15:38.073Z,11.51
2023-04-25T08:18:11.002Z,11.58
2023-04-25T08:20:43.854Z,11.90
2023-04-25T08:23:17.281Z,12.09
2023-04-25T08:25:50.704Z,12.03
2023-04-25T08:28:23.834Z,12.36
2023-04-25T08:30:56.525Z,13.22
2023-04-25T08:33:30.720Z,13.55
2023-04-25T08:36:04.411Z,13.23
2023-04-25T08:38:39.048Z,13.04
2023-04-25T08:41:14.594Z,13.16
2023-04-25T08:44:11.959Z,13.25
2023-04-25T08:46:51.947Z,13.14
2023-04-25T08:49:28.561Z,12.84
2023-04-25T08:52:07.893Z,12.40
2023-04-25T08:54:46.611Z,12.00
2023-04-25T08:57:22.225Z,11.69
2023-04-25T09:00:14.959Z,11.55
2023-04-25T09:02:50.313Z,11.64
2023-04-25T09:05:24.996Z,11.71
2023-04-25T09:07:58.786Z,11.70
2023-04-25T09:13:17.613Z,11.67
2023-04-25T09:15:59.042Z,11.53
2023-04-25T09:18:34.180Z,11.42
2023-04-25T09:21:14.681Z,11.41
2023-04-25T09:23:53.424Z,11.41
2023-04-25T09:26:31.184Z,11.44
2023-04-25T09:29:11.564Z,11.51
2023-04-25T09:31:44.414Z,11.70
2023-04-25T09:34:18.913Z,11.93
2023-04-25T09:36:52.822Z,12.19
2023-04-25T09:39:27.915Z,12.35
2023-04-25T09:42:02.291Z,12.51
2023-04-25T09:44:35.396Z,12.62
2023-04-25T09:47:13.529Z,12.64
2023-04-25T09:49:46.848Z,12.63
2023-04-25T09:52:23.874Z,12.57
2023-04-25T09:54:57.847Z,12.36
2023-04-25T09:57:30.773Z,12.17
2023-04-25T10:00:12.999Z,12.01
2023-04-25T10:02:50.881Z,11.80
2023-04-25T10:05:27.214Z,11.67
2023-04-25T10:08:05.135Z,11.64
2023-04-25T10:10:42.773Z,11.61
2023-04-25T10:13:17.062Z,11.57
2023-04-25T10:16:00.432Z,11.54
2023-04-25T10:18:37.790Z,11.54
2023-04-25T10:21:13.013Z,11.52
2023-04-25T10:23:51.525Z,11.58
2023-04-25T10:26:26.427Z,11.63
2023-04-25T10:29:01.503Z,11.61
2023-04-25T10:31:35.088Z,11.56
2023-04-25T10:34:08.475Z,11.60
2023-04-25T10:36:41.883Z,11.73
2023-04-25T10:39:15.584Z,11.89
2023-04-25T10:42:04.104Z,11.98
2023-04-25T10:44:40.999Z,12.13
2023-04-25T10:47:14.528Z,12.20
2023-04-25T10:49:55.418Z,12.25
2023-04-25T10:52:30.271Z,12.29
2023-04-25T10:55:06.117Z,12.33
2023-04-25T10:57:46.785Z,12.39
2023-04-25T11:00:26.015Z,12.51
2023-04-25T11:03:04.809Z,12.63
2023-04-25T11:05:47.619Z,12.59
2023-04-25T11:08:52.153Z,12.52
2023-04-25T11:11:28.410Z,12.56
2023-04-25T11:14:01.692Z,12.54
2023-04-25T11:16:34.917Z,12.38
2023-04-25T11:19:07.551Z,12.20
2023-04-25T11:21:39.912Z,11.96
2023-04-25T11:24:13.782Z,11.74
2023-04-25T11:26:50.299Z,11.42
2023-04-25T11:29:38.466Z,11.21
2023-04-25T11:32:11.865Z,11.04
2023-04-25T11:34:47.783Z,10.96
2023-04-25T11:37:21.331Z,10.96
2023-04-25T11:40:15.948Z,10.98
2023-04-25T11:42:49.816Z,10.97
2023-04-25T11:45:25.854Z,10.93
2023-04-25T11:47:58.916Z,10.93
2023-04-25T11:50:32.165Z,10.93
2023-04-25T11:53:04.887Z,10.94
2023-04-25T11:55:38.790Z,10.93
2023-04-25T11:58:15.454Z,10.87
2023-04-25T12:00:51.195Z,10.86
2023-04-25T12:03:30.867Z,10.89
2023-04-25T12:06:09.231Z,10.89
2023-04-25T12:09:02.752Z,10.90
2023-04-25T12:12:20.501Z,10.93
2023-04-25T12:14:54.063Z,11.04
2023-04-25T12:17:27.252Z,11.13
2023-04-25T12:20:12.546Z,11.19
2023-04-25T12:22:58.981Z,11.19
2023-04-25T12:25:57.572Z,11.23
2023-04-25T12:28:43.865Z,11.30
2023-04-25T12:31:18.121Z,11.30
2023-04-25T12:33:53.815Z,11.28
2023-04-25T12:36:27.848Z,11.20
2023-04-25T12:39:05.923Z,11.23
2023-04-25T12:41:39.663Z,11.31
2023-04-25T12:44:13.022Z,11.33
2023-04-25T12:46:49.411Z,11.37
2023-04-25T12:49:22.935Z,11.44
2023-04-25T12:51:55.891Z,11.50
2023-04-25T12:54:29.908Z,11.53
2023-04-25T12:57:04.645Z,11.55
2023-04-25T12:59:43.041Z,11.58
2023-04-25T13:02:20.715Z,11.73
2023-04-25T13:04:54.412Z,11.85
2023-04-25T13:07:27.818Z,11.96
2023-04-25T13:10:01.700Z,12.07
2023-04-25T13:12:35.686Z,12.28
2023-04-25T13:15:19.922Z,12.61
2023-04-25T13:17:53.409Z,12.93
2023-04-25T13:20:26.760Z,13.05
2023-04-25T13:23:01.033Z,13.16
2023-04-25T13:25:36.149Z,13.28
2023-04-25T13:28:09.416Z,13.36
2023-04-25T13:30:45.499Z,13.42
2023-04-25T13:33:19.271Z,13.44
2023-04-25T13:36:01.036Z,13.38
2023-04-25T13:38:37.817Z,13.43
2023-04-25T13:41:16.252Z,13.39
2023-04-25T13:43:49.992Z,13.42
2023-04-25T13:49:09.928Z,13.48
2023-04-25T13:51:45.633Z,13.36
2023-04-25T13:54:22.626Z,13.21
2023-04-25T13:57:00.662Z,12.98
2023-04-25T13:59:34.549Z,12.65
2023-04-25T14:02:08.028Z,12.40
2023-04-25T14:04:42.346Z,12.14
2023-04-25T14:07:20.977Z,11.82
2023-04-25T14:09:56.324Z,11.39
2023-04-25T14:12:29.017Z,11.06
2023-04-25T14:15:02.739Z,10.79
2023-04-25T14:17:35.787Z,10.54
2023-04-25T14:20:10.604Z,10.29
2023-04-25T14:22:47.184Z,10.07
2023-04-25T14:25:24.003Z,10.00
2023-04-25T14:27:56.829Z,9.96
2023-04-25T14:30:29.905Z,9.89
2023-04-25T14:33:03.746Z,9.85
2023-04-25T14:35:40.185Z,9.80
2023-04-25T14:38:24.738Z,9.71
2023-04-25T14:40:57.595Z,9.71
2023-04-25T14:43:30.957Z,9.64
2023-04-25T14:46:04.275Z,9.61
2023-04-25T14:48:37.845Z,9.58
2023-04-25T14:51:11.023Z,9.53
2023-04-25T14:53:43.940Z,9.52
2023-04-25T14:56:17.134Z,9.54
2023-04-25T14:58:50.790Z,9.50
2023-04-25T15:01:25.712Z,9.43
2023-04-25T15:04:00.786Z,9.34
2023-04-25T15:06:34.001Z,9.26
2023-04-25T15:09:08.688Z,9.22
2023-04-25T15:11:44.143Z,9.14
2023-04-25T15:14:20.048Z,9.11
2023-04-25T15:16:53.184Z,9.08
2023-04-25T15:19:30.002Z,9.04
2023-04-25T15:22:03.649Z,9.00
2023-04-25T15:24:40.489Z,8.97
2023-04-25T15:27:15.579Z,8.95
2023-04-25T15:29:48.182Z,8.91
2023-04-25T15:32:21.854Z,8.84
2023-04-25T15:34:54.924Z,8.79
2023-04-25T15:37:28.116Z,8.76
2023-04-25T15:40:14.579Z,8.74
2023-04-25T15:42:52.113Z,8.70
2023-04-25T15:45:27.049Z,8.66
2023-04-25T15:48:00.703Z,8.64
2023-04-25T15:50:34.234Z,8.64
2023-04-25T15:53:09.178Z,8.66
2023-04-25T15:55:42.578Z,8.67
2023-04-25T15:58:15.726Z,8.70
2023-04-25T16:00:52.114Z,8.75
2023-04-25T16:03:25.318Z,8.71
2023-04-25T16:05:59.472Z,8.67
2023-04-25T16:08:36.908Z,8.67
2023-04-25T16:11:09.981Z,8.67
2023-04-25T16:13:46.412Z,8.69
2023-04-25T16:16:24.786Z,8.70
2023-04-25T16:19:02.409Z,8.68
2023-04-25T16:21:35.244Z,8.67
2023-04-25T16:24:08.867Z,8.64
2023-04-25T16:26:45.087Z,8.61
2023-04-25T16:29:18.347Z,8.60
2023-04-25T16:31:52.903Z,8.60
2023-04-25T16:34:30.678Z,8.60
2023-04-25T16:37:05.674Z,8.55
2023-04-25T16:39:39.281Z,8.49
2023-04-25T16:42:12.356Z,8.47
2023-04-25T16:44:53.779Z,8.48
2023-04-25T16:47:30.763Z,8.47
2023-04-25T16:50:04.168Z,8.45
2023-04-25T16:52:37.369Z,8.44
2023-04-25T16:55:10.451Z,8.39
2023-04-25T16:57:49.586Z,8.33
2023-04-25T17:00:22.606Z,8.32
2023-04-25T17:02:55.509Z,8.33
2023-04-25T17:05:34.453Z,8.33
2023-04-25T17:08:10.096Z,8.30
2023-04-25T17:10:48.786Z,8.28
2023-04-25T17:13:31.155Z,8.26
2023-04-25T17:16:06.158Z,8.25
2023-04-25T17:18:41.824Z,8.22
2023-04-25T17:21:18.952Z,8.20
2023-04-25T17:23:55.254Z,8.18
2023-04-25T17:26:27.954Z,8.16
2023-04-25T17:29:03.946Z,8.12
2023-04-25T17:31:37.750Z,8.11
2023-04-25T17:34:12.643Z,8.14
2023-04-25T17:36:49.570Z,8.15
2023-04-25T17:39:22.854Z,8.16
2023-04-25T17:41:55.657Z,8.17
2023-04-25T17:44:28.676Z,8.14
2023-04-25T17:47:06.604Z,8.10
2023-04-25T17:49:41.774Z,8.05
2023-04-25T17:52:15.311Z,8.03
2023-04-25T17:54:49.609Z,8.01
2023-04-25T17:57:23.433Z,8.00
2023-04-25T17:59:58.492Z,8.01
2023-04-25T18:02:32.506Z,7.99
2023-04-25T18:05:10.121Z,7.98
2023-04-25T18:07:43.737Z,7.97
2023-04-25T18:10:15.659Z,7.93
2023-04-25T18:12:47.509Z,7.89
2023-04-25T18:15:23.116Z,7.87
2023-04-25T18:17:58.332Z,7.82
2023-04-25T18:20:32.277Z,7.78
2023-04-25T18:23:06.678Z,7.71
2023-04-25T18:25:40.563Z,7.62
2023-04-25T18:28:15.767Z,7.52
2023-04-25T18:30:50.508Z,7.45
2023-04-25T18:33:24.464Z,7.38
2023-04-25T18:36:00.477Z,7.33
2023-04-25T18:38:36.049Z,7.27
2023-04-25T18:41:34.404Z,7.19
2023-04-25T18:44:09.651Z,7.12
2023-04-25T18:46:47.293Z,7.04
2023-04-25T18:49:22.979Z,6.99
2023-04-25T18:51:59.061Z,6.92
2023-04-25T18:54:33.645Z,6.88
2023-04-25T18:57:10.794Z,6.84
2023-04-25T18:59:46.344Z,6.82
2023-04-25T19:02:21.628Z,6.78
2023-04-25T19:04:55.141Z,6.75
2023-04-25T19:07:29.889Z,6.73
2023-04-25T19:10:05.676Z,6.71
2023-04-25T19:12:47.478Z,6.69
2023-04-25T19:15:21.284Z,6.68
2023-04-25T19:17:55.730Z,6.65
2023-04-25T19:20:29.093Z,6.60
2023-04-25T19:23:05.822Z,6.57
2023-04-25T19:25:39.688Z,6.56
2023-04-25T19:28:16.032Z,6.56
2023-04-25T19:31:03.119Z,6.55
2023-04-25T19:33:37.533Z,6.53
2023-04-25T19:36:14.684Z,6.49
2023-04-25T19:38:47.587Z,6.46
2023-04-25T19:41:20.844Z,6.44
2023-04-25T19:43:56.438Z,6.42
2023-04-25T19:46:30.065Z,6.40
2023-04-25T19:49:07.408Z,6.39
2023-04-25T19:51:40.938Z,6.38
2023-04-25T19:54:13.822Z,6.35
2023-04-25T19:56:47.357Z,6.33
2023-04-25T19:59:25.462Z,6.30
2023-04-25T20:02:02.328Z,6.29
2023-04-25T20:04:36.114Z,6.27
2023-04-25T20:07:09.930Z,6.25
2023-04-25T20:09:44.347Z,6.24
2023-04-25T20:12:19.283Z,6.23
2023-04-25T20:14:53.413Z,6.21
2023-04-25T20:17:27.682Z,6.20
2023-04-25T20:20:04.737Z,6.18
2023-04-25T20:22:41.552Z,6.17
2023-04-25T20:25:15.460Z,6.16
2023-04-25T20:27:53.507Z,6.15
2023-04-25T20:30:28.924Z,6.14
2023-04-25T20:33:05.768Z,6.11
2023-04-25T20:35:43.005Z,6.11
2023-04-25T20:38:17.059Z,6.10
2023-04-25T20:40:52.417Z,6.09
2023-04-25T20:43:28.467Z,6.07
2023-04-25T20:46:05.024Z,6.07
2023-04-25T20:48:38.681Z,6.05
2023-04-25T20:51:14.880Z,6.05
2023-04-25T20:53:48.667Z,6.04
2023-04-25T20:56:22.517Z,6.03
2023-04-25T20:58:57.872Z,6.02
2023-04-25T21:01:34.643Z,6.00
2023-04-25T21:04:11.683Z,5.98
2023-04-25T21:06:45.645Z,5.97
2023-04-25T21:09:20.001Z,5.94
2023-04-25T21:11:53.742Z,5.91
2023-04-25T21:14:27.127Z,5.90
2023-04-25T21:17:00.310Z,5.92
2023-04-25T21:19:34.455Z,5.92
2023-04-25T21:22:10.399Z,5.92
2023-04-25T21:24:44.596Z,5.92
2023-04-25T21:27:21.507Z,5.92
2023-04-25T21:29:54.832Z,5.93
2023-04-25T21:32:31.350Z,5.94
2023-04-25T21:35:04.488Z,5.94
2023-04-25T21:37:39.430Z,5.95
2023-04-25T21:40:13.398Z,5.94
2023-04-25T21:42:57.388Z,5.93
2023-04-25T21:45:32.088Z,5.94
2023-04-25T21:48:06.019Z,5.94
2023-04-25T21:50:39.036Z,5.93
2023-04-25T21:53:12.485Z,5.92
2023-04-25T21:55:45.949Z,5.90
2023-04-25T21:58:24.868Z,5.88
2023-04-25T22:00:57.725Z,5.89
2023-04-25T22:03:36.715Z,5.86
2023-04-25T22:06:10.404Z,5.82
2023-04-25T22:08:47.593Z,5.78
2023-04-25T22:11:27.154Z,5.75
2023-04-25T22:14:02.571Z,5.72
2023-04-25T22:16:37.947Z,5.71
2023-04-25T22:19:12.959Z,5.69
2023-04-25T22:21:47.019Z,5.67
2023-04-25T22:24:23.398Z,5.66
2023-04-25T22:26:58.414Z,5.68
2023-04-25T22:29:33.461Z,5.67
2023-04-25T22:32:08.072Z,5.66
2023-04-25T22:34:42.451Z,5.65
2023-04-25T22:37:15.136Z,5.63
2023-04-25T22:39:48.346Z,5.64
2023-04-25T22:42:21.610Z,5.62
2023-04-25T22:44:55.779Z,5.64
2023-04-25T22:47:30.003Z,5.63
2023-04-25T22:50:07.387Z,5.61
2023-04-25T22:52:41.750Z,5.63
2023-04-25T22:55:14.952Z,5.61
2023-04-25T22:57:48.986Z,5.59
2023-04-25T23:00:23.623Z,5.56
2023-04-25T23:02:56.781Z,5.55
2023-04-25T23:05:31.677Z,5.53
2023-04-25T23:08:10.123Z,5.53
2023-04-25T23:10:43.850Z,5.49
2023-04-25T23:13:17.763Z,5.49
2023-04-25T23:15:51.418Z,5.46
2023-04-25T23:18:24.289Z,5.43
2023-04-25T23:21:00.610Z,5.40
2023-04-25T23:23:36.974Z,5.38
2023-04-25T23:26:14.132Z,5.35
2023-04-25T23:28:48.099Z,5.34
2023-04-25T23:31:21.793Z,5.32
2023-04-25T23:33:55.552Z,5.30
2023-04-25T23:36:29.227Z,5.25
2023-04-25T23:39:03.463Z,5.23
2023-04-25T23:41:36.754Z,5.21
2023-04-25T23:44:15.316Z,5.17
2023-04-25T23:46:51.795Z,5.14
2023-04-25T23:49:25.615Z,5.11
2023-04-25T23:51:58.816Z,5.07
2023-04-25T23:54:32.965Z,5.03
2023-04-25T23:57:06.272Z,5.01
2023-04-25T23:59:39.427Z,4.98
